Time;durP1;ratioP1;P1;durP2;ratioP2;P2;SDS_P1;SDS_P2;PMS_P1;PMS_P2;Temp;Humidity;BMP_temperature;BMP_pressure;BME280_temperature;BME280_humidity;BME280_pressure;Samples;Min_cycle;Max_cycle;Signal;HPM_P1;HPM_P2
2022/12/11 00:05:05;;;;;;;11.27;3.80;;;384.80;2329.60;;;;;;5036611;28;20396;-88
2022/12/11 00:14:47;;;;;;;6.32;3.88;;;409.60;2355.20;;;;;;4950143;28;20028;-88
2022/12/11 00:17:37;;;;;;;7.82;4.32;;;409.60;2355.20;;;;;;5034931;28;20025;-87
2022/12/11 00:20:22;;;;;;;12.90;8.38;;;409.70;2355.20;;;;;;5034884;28;20029;-91
2022/12/11 00:22:48;;;;;;;5.90;3.00;;;409.70;2355.20;;;;;;5034740;28;20045;-88
2022/12/11 00:25:19;;;;;;;11.23;4.13;;;409.70;2355.20;;;;;;5034641;28;20025;-91
2022/12/11 00:27:48;;;;;;;4.75;2.10;;;409.80;2355.20;;;;;;5035071;28;20030;-87
2022/12/11 00:30:14;;;;;;;4.88;1.88;;;410.00;2355.20;;;;;;5035072;28;20022;-89
2022/12/11 00:33:18;;;;;;;6.03;3.65;;;410.20;2355.20;;;;;;5035095;28;20428;-88
2022/12/11 00:35:46;;;;;;;4.47;1.90;;;410.20;2355.20;;;;;;5034770;28;20030;-88
2022/12/11 00:38:17;;;;;;;4.38;2.15;;;410.20;2355.20;;;;;;5034518;28;20405;-89
2022/12/11 00:40:43;;;;;;;5.45;2.17;;;410.20;2355.20;;;;;;5034712;28;20462;-90
2022/12/11 00:43:09;;;;;;;9.32;5.43;;;410.20;2355.20;;;;;;5033796;28;20520;-90
2022/12/11 00:49:09;;;;;;;5.80;1.63;;;410.20;2355.20;;;;;;4998056;28;20437;-88
2022/12/11 00:51:45;;;;;;;6.45;3.20;;;410.20;2355.20;;;;;;5068160;28;20440;-90
2022/12/11 00:54:21;;;;;;;5.05;2.83;;;410.00;2355.20;;;;;;5067787;28;20036;-90
2022/12/11 00:59:47;;;;;;;;;;;;;;;;;;;;;
2022/12/11 01:12:41;;;;;;;5.03;2.72;;;409.70;2355.20;;;;;;4977186;28;20045;-88
2022/12/11 01:15:36;;;;;;;3.58;2.15;;;409.70;2355.20;;;;;;4952459;29;20567;-88
2022/12/11 01:18:05;;;;;;;4.93;2.08;;;409.70;2355.20;;;;;;4938523;29;20125;-89
2022/12/11 01:20:57;;;;;;;5.03;2.30;;;409.70;2355.20;;;;;;4939003;29;20062;-87
2022/12/11 01:23:23;;;;;;;4.07;2.20;;;409.80;2355.20;;;;;;4952700;28;20039;-88
2022/12/11 01:26:10;;;;;;;4.35;2.00;;;409.70;2355.20;;;;;;4965403;28;20267;-89
2022/12/11 01:28:44;;;;;;;7.10;2.47;;;409.70;2355.20;;;;;;5031487;28;20084;-90
2022/12/11 01:34:23;;;;;;;3.65;1.88;;;409.80;2355.20;;;;;;5015125;28;20072;-88
2022/12/11 01:36:55;;;;;;;3.72;1.60;;;409.70;2355.20;;;;;;5031347;28;20165;-89
2022/12/11 01:39:28;;;;;;;4.03;1.97;;;409.70;2355.20;;;;;;5017500;28;20036;-90
2022/12/11 01:42:12;;;;;;;4.35;1.70;;;409.70;2355.20;;;;;;5017680;28;20033;-89
2022/12/11 01:44:38;;;;;;;4.18;2.05;;;409.70;2355.20;;;;;;5017164;28;20068;-89
2022/12/11 01:47:03;;;;;;;4.50;2.15;;;409.70;2355.20;;;;;;5050178;28;20068;-88
2022/12/11 01:49:29;;;;;;;3.67;2.15;;;409.70;2355.20;;;;;;5017074;28;20449;-89
2022/12/11 01:52:20;;;;;;;5.07;2.20;;;409.70;2355.20;;;;;;5017254;28;20037;-88
2022/12/11 01:54:47;;;;;;;3.40;1.45;;;409.70;2355.20;;;;;;5016925;28;20029;-89
2022/12/11 01:57:15;;;;;;;3.95;1.48;;;409.70;2355.20;;;;;;5017272;28;20033;-88
2022/12/11 01:59:47;;;;;;;4.43;2.15;;;409.70;2355.20;;;;;;5017125;28;20029;-88
2022/12/11 02:02:16;;;;;;;;;;;409.60;2355.20;;;;;;5017351;28;20493;-88
2022/12/11 02:04:46;;;;;;;3.38;1.52;;;409.60;2355.20;;;;;;5016940;28;19955;-89
2022/12/11 02:07:17;;;;;;;3.28;1.45;;;409.60;2355.20;;;;;;5017083;28;20413;-89
2022/12/11 02:09:45;;;;;;;3.30;1.60;;;409.70;2355.20;;;;;;5016914;28;20389;-88
2022/12/11 02:12:35;;;;;;;4.95;1.90;;;409.70;2355.20;;;;;;5016748;28;20739;-89
2022/12/11 02:15:01;;;;;;;5.95;2.15;;;409.60;2355.20;;;;;;5033375;28;20032;-88
2022/12/11 02:18:04;;;;;;;4.72;1.60;;;409.70;2355.20;;;;;;5050153;28;20025;-88
2022/12/11 02:20:37;;;;;;;5.35;2.38;;;409.70;2355.20;;;;;;5049927;28;20022;-89
2022/12/11 02:23:35;;;;;;;7.80;3.33;;;409.70;2355.20;;;;;;5016786;28;20059;-88
2022/12/11 02:26:41;;;;;;;4.53;2.50;;;409.60;2355.20;;;;;;5034366;28;20025;-88
2022/12/11 02:29:38;;;;;;;4.95;2.90;;;409.60;2355.20;;;;;;5035013;28;20025;-88
2022/12/11 02:32:22;;;;;;;8.35;3.63;;;409.60;2355.20;;;;;;5008832;28;20128;-89
2022/12/11 02:35:10;;;;;;;6.93;3.25;;;409.60;2355.20;;;;;;5036634;28;20029;-89
2022/12/11 02:37:40;;;;;;;7.22;2.50;;;409.60;2355.20;;;;;;5049570;28;20065;-88
2022/12/11 02:40:10;;;;;;;4.28;2.08;;;409.70;2355.20;;;;;;5016944;28;20032;-88
2022/12/11 02:42:38;;;;;;;6.32;2.20;;;409.70;2355.20;;;;;;5017010;28;20099;-89
2022/12/11 02:45:07;;;;;;;6.97;3.25;;;409.70;2355.20;;;;;;5017095;28;20053;-89
2022/12/11 02:48:23;;;;;;;5.63;1.90;;;409.70;2355.20;;;;;;5017559;28;20120;-90
2022/12/11 02:50:53;;;;;;;3.70;1.50;;;409.70;2355.20;;;;;;5011134;28;20128;-89
2022/12/11 02:53:23;;;;;;;4.65;2.35;;;409.70;2355.20;;;;;;5034895;28;20521;-89
2022/12/11 02:55:55;;;;;;;8.68;3.53;;;409.70;2355.20;;;;;;5017280;28;20454;-89
2022/12/11 02:58:28;;;;;;;9.80;4.03;;;409.80;2355.20;;;;;;5017527;28;20084;-89
2022/12/11 03:00:54;;;;;;;6.55;2.60;;;409.80;2355.20;;;;;;5018227;28;20089;-88
2022/12/11 03:03:21;;;;;;;14.18;7.00;;;410.30;2355.20;;;;;;5031899;28;20079;-89
2022/12/11 03:05:47;;;;;;;11.57;7.28;;;409.70;2355.20;;;;;;5032791;28;20028;-91
2022/12/11 03:08:16;;;;;;;7.28;4.30;;;409.70;2355.20;;;;;;5025548;28;20026;-90
2022/12/11 03:10:42;;;;;;;7.47;4.70;;;409.70;2355.20;;;;;;5020490;28;20040;-90
2022/12/11 03:14:35;;;;;;;6.15;4.00;;;409.70;2355.20;;;;;;5022523;28;20044;-89
2022/12/11 03:55:40;;;;;;;6.35;3.63;;;409.70;2355.20;;;;;;5013292;28;20533;-91
2022/12/11 03:58:37;;;;;;;14.32;8.13;;;409.70;2355.20;;;;;;4998104;28;20141;-89
2022/12/11 04:11:37;;;;;;;7.43;3.35;;;384.90;2329.60;;;;;;4918250;29;20047;-89
2022/12/11 04:55:48;;;;;;;;;;;;;;;;;;;;;
2022/12/11 04:59:15;;;;;;;27.85;14.00;;;358.80;2329.60;;;;;;4917268;29;20415;-88
2022/12/11 05:05:26;;;;;;;13.27;7.65;;;358.90;2329.60;;;;;;4823804;29;20050;-88
2022/12/11 05:07:55;;;;;;;11.32;5.32;;;358.70;2329.60;;;;;;4811000;29;20038;-89
2022/12/11 05:10:21;;;;;;;6.03;3.45;;;333.70;2329.60;;;;;;4929374;28;20152;-86
2022/12/11 05:12:47;;;;;;;11.13;4.50;;;333.50;2329.60;;;;;;4960758;28;20503;-86
2022/12/11 05:15:16;;;;;;;14.68;6.68;;;333.30;2329.60;;;;;;4958435;28;20027;-90
2022/12/11 05:17:42;;;;;;;11.82;6.47;;;333.30;2329.60;;;;;;4958158;28;20498;-90
2022/12/11 05:20:08;;;;;;;11.27;6.63;;;333.10;2329.60;;;;;;4974148;28;20081;-90
2022/12/11 05:22:34;;;;;;;13.60;7.13;;;333.10;2329.60;;;;;;4974288;28;20095;-90
2022/12/11 05:25:00;;;;;;;9.45;6.78;;;333.00;2227.20;;;;;;4958383;28;20038;-90
2022/12/11 05:27:26;;;;;;;9.40;6.15;;;308.10;2304.00;;;;;;4958276;28;20138;-91
2022/12/11 05:29:52;;;;;;;10.88;6.47;;;308.00;2304.00;;;;;;4973421;28;20022;-91
2022/12/11 05:32:17;;;;;;;13.95;8.05;;;307.80;2304.00;;;;;;4994693;28;20132;-92
2022/12/11 05:34:46;;;;;;;11.23;7.00;;;307.50;2304.00;;;;;;5017399;28;20025;-92
2022/12/11 05:37:14;;;;;;;10.20;6.55;;;307.40;2304.00;;;;;;5017556;28;20377;-94
2022/12/11 05:39:40;;;;;;;18.13;9.27;;;307.30;2304.00;;;;;;5017755;28;20033;-93
2022/12/11 05:42:06;;;;;;;12.32;7.18;;;307.30;2304.00;;;;;;5017392;28;20037;-93
2022/12/11 05:44:32;;;;;;;8.38;6.28;;;307.30;2304.00;;;;;;5023069;28;20025;-91
2022/12/11 05:46:58;;;;;;;9.88;6.75;;;307.40;2304.00;;;;;;5037224;28;20124;-89
2022/12/11 05:49:24;;;;;;;15.02;6.68;;;307.50;2304.00;;;;;;5036946;28;20052;-90
2022/12/11 05:51:50;;;;;;;7.47;5.50;;;307.50;2304.00;;;;;;5036898;28;20029;-90
2022/12/11 05:54:16;;;;;;;9.20;6.47;;;307.40;2304.00;;;;;;5037016;28;20135;-89
2022/12/11 05:56:44;;;;;;;8.95;6.05;;;307.40;2304.00;;;;;;5036767;28;20032;-90
2022/12/11 05:59:18;;;;;;;21.77;11.27;;;307.40;2304.00;;;;;;5033194;28;20060;-89
2022/12/11 06:01:44;;;;;;;9.88;5.95;;;307.30;2304.00;;;;;;5022475;28;20040;-92
2022/12/11 06:04:12;;;;;;;7.60;5.18;;;307.30;2304.00;;;;;;5037068;28;20469;-93
2022/12/11 06:06:39;;;;;;;9.48;6.10;;;307.20;2304.00;;;;;;5037318;28;20053;-91
2022/12/11 06:09:06;;;;;;;8.55;5.57;;;282.50;2278.40;;;;;;5036897;28;20075;-92
2022/12/11 06:11:33;;;;;;;9.73;5.25;;;282.40;2278.40;;;;;;5036915;28;20071;-91
2022/12/11 06:14:01;;;;;;;9.88;5.80;;;282.20;2278.40;;;;;;5031785;28;20137;-91
2022/12/11 06:16:29;;;;;;;7.43;4.60;;;282.20;2278.40;;;;;;5033528;28;20033;-92
2022/12/11 06:18:55;;;;;;;8.98;4.70;;;282.10;2278.40;;;;;;5033096;28;20432;-92
2022/12/11 06:21:26;;;;;;;15.40;7.47;;;282.10;2278.40;;;;;;5033480;28;20030;-92
2022/12/11 06:23:54;;;;;;;16.35;6.55;;;281.90;2278.40;;;;;;5033546;28;20056;-93
2022/12/11 06:26:21;;;;;;;17.33;8.65;;;281.80;2278.40;;;;;;5050039;28;20056;-91
2022/12/11 06:28:52;;;;;;;8.60;4.70;;;281.80;2278.40;;;;;;5033431;28;20124;-93
2022/12/11 06:31:24;;;;;;;12.43;5.72;;;281.70;2278.40;;;;;;5033324;28;20033;-93
2022/12/11 06:33:55;;;;;;;6.38;3.80;;;281.70;2278.40;;;;;;5033365;28;20485;-93
2022/12/11 06:36:46;;;;;;;6.45;3.80;;;256.80;2252.80;;;;;;5033390;28;20057;-93
2022/12/11 06:39:31;;;;;;;7.95;3.42;;;256.80;2252.80;;;;;;5033587;28;20057;-93
2022/12/11 06:41:57;;;;;;;10.68;5.13;;;256.60;2252.80;;;;;;5036270;28;20040;-93
2022/12/11 06:44:23;;;;;;;7.80;4.53;;;256.40;2252.80;;;;;;5037546;28;20034;-94
2022/12/11 06:46:49;;;;;;;9.00;5.38;;;256.20;2252.80;;;;;;5037723;28;20075;-92
2022/12/11 06:49:20;;;;;;;10.32;4.57;;;256.10;2252.80;;;;;;5037793;28;20116;-92
2022/12/11 06:51:46;;;;;;;10.15;5.45;;;256.00;2252.80;;;;;;5037959;28;20455;-93
2022/12/11 06:54:15;;;;;;;10.82;6.25;;;;;;;;;;5037134;28;20528;-94
2022/12/11 06:56:41;;;;;;;10.95;5.72;;;;;;;;;;5020379;28;20025;-92
2022/12/11 06:59:19;;;;;;;11.55;6.63;;;;;;;;;;5020159;28;20056;-91
2022/12/11 07:01:48;;;;;;;9.15;4.80;;;231.20;2252.80;;;;;;5020495;28;20488;-93
2022/12/11 07:04:24;;;;;;;;;;;;;;;;;;;;;
2022/12/11 07:07:06;;;;;;;7.15;4.45;;;231.00;2252.80;;;;;;5037926;28;20096;-92
2022/12/11 07:12:58;;;;;;;27.52;14.88;;;230.90;2252.80;;;;;;4976815;28;20046;-93
2022/12/11 07:15:23;;;;;;;16.58;9.88;;;230.90;2252.80;;;;;;4976587;28;20027;-93
2022/12/11 07:17:49;;;;;;;20.08;13.10;;;230.80;2252.80;;;;;;5024679;28;20120;-91
2022/12/11 07:20:16;;;;;;;19.58;13.48;;;230.80;2252.80;;;;;;5036589;28;20037;-91
2022/12/11 07:22:42;;;;;;;16.65;10.27;;;230.70;2252.80;;;;;;5036669;28;20037;-92
2022/12/11 07:25:08;;;;;;;9.07;6.60;;;230.80;2252.80;;;;;;5036475;28;20033;-92
2022/12/11 07:27:34;;;;;;;8.75;5.90;;;230.70;2252.80;;;;;;5036292;28;20040;-92
2022/12/11 07:29:59;;;;;;;15.43;10.13;;;230.70;2252.80;;;;;;5036688;28;20022;-91
2022/12/11 07:32:25;;;;;;;16.35;10.63;;;230.70;2252.80;;;;;;5036505;28;20465;-92
2022/12/11 07:34:51;;;;;;;5.82;3.90;;;230.80;2252.80;;;;;;5036489;28;20048;-92
2022/12/11 07:37:17;;;;;;;10.40;7.38;;;230.80;2252.80;;;;;;5036075;28;20040;-94
2022/12/11 07:39:43;;;;;;;15.85;10.00;;;230.80;2252.80;;;;;;5036329;28;20029;-92
2022/12/11 07:42:08;;;;;;;15.05;8.75;;;230.90;2252.80;;;;;;5036146;28;20029;-93
2022/12/11 07:44:34;;;;;;;10.18;6.75;;;231.00;2252.80;;;;;;5036123;28;20474;-92
2022/12/11 07:47:00;;;;;;;8.02;4.90;;;230.90;2252.80;;;;;;5035875;28;20056;-92
2022/12/11 07:49:26;;;;;;;7.70;5.13;;;230.90;2252.80;;;;;;5035857;28;20032;-91
2022/12/11 07:51:52;;;;;;;9.07;5.43;;;231.00;2252.80;;;;;;5035697;28;20029;-92
2022/12/11 07:54:18;;;;;;;6.03;4.10;;;230.90;2252.80;;;;;;5035368;28;20362;-92
2022/12/11 07:56:45;;;;;;;9.65;5.45;;;230.70;2252.80;;;;;;5035924;28;20115;-91
2022/12/11 07:59:12;;;;;;;6.35;3.10;;;230.80;2252.80;;;;;;5035692;28;20064;-95
2022/12/11 08:01:39;;;;;;;8.98;5.60;;;230.70;2252.80;;;;;;5035857;28;20029;-92
2022/12/11 08:04:07;;;;;;;12.45;7.57;;;230.70;2252.80;;;;;;5035823;28;20044;-92
2022/12/11 08:06:36;;;;;;;12.05;7.85;;;230.70;2252.80;;;;;;5035889;28;20064;-92
2022/12/11 08:09:05;;;;;;;9.48;6.43;;;230.70;2252.80;;;;;;5035749;28;20026;-93
2022/12/11 08:11:31;;;;;;;5.03;3.03;;;230.60;2252.80;;;;;;5035571;28;20167;-92
2022/12/11 08:14:01;;;;;;;7.40;4.38;;;230.50;2252.80;;;;;;5035488;28;20465;-91
2022/12/11 08:16:28;;;;;;;11.52;6.80;;;230.40;2252.80;;;;;;5035300;28;20029;-94
2022/12/11 08:18:54;;;;;;;10.43;6.07;;;230.40;2252.80;;;;;;5035375;28;20025;-92
2022/12/11 08:21:25;;;;;;;13.55;7.10;;;230.40;2252.80;;;;;;5035219;28;20037;-94
2022/12/11 08:23:52;;;;;;;14.55;8.90;;;230.50;1971.20;;;;;;5035143;28;20068;-93
2022/12/11 08:26:26;;;;;;;10.25;6.35;;;230.50;2252.80;;;;;;5035022;28;20485;-93
2022/12/11 08:28:52;;;;;;;13.32;7.43;;;230.50;2252.80;;;;;;5035199;28;20025;-92
2022/12/11 08:31:18;;;;;;;14.95;8.82;;;230.40;2252.80;;;;;;5035036;28;20037;-92
2022/12/11 08:33:45;;;;;;;12.52;6.80;;;230.50;2099.20;;;;;;5035100;28;20033;-93
2022/12/11 08:36:14;;;;;;;9.43;6.10;;;230.50;2252.80;;;;;;5035001;28;20025;-93
2022/12/11 08:38:40;;;;;;;21.77;15.05;;;230.50;2252.80;;;;;;5034863;28;20036;-92
2022/12/11 08:41:09;;;;;;;20.65;13.05;;;230.50;2252.80;;;;;;5035029;28;20043;-93
2022/12/11 08:43:35;;;;;;;12.15;7.88;;;230.50;2252.80;;;;;;5018318;28;20037;-92
2022/12/11 08:46:00;;;;;;;12.25;7.20;;;230.50;2252.80;;;;;;5034804;28;20461;-92
2022/12/11 08:48:26;;;;;;;12.63;7.82;;;230.40;2252.80;;;;;;5035708;28;20441;-93
2022/12/11 08:50:52;;;;;;;16.83;11.88;;;230.50;2252.80;;;;;;5034751;28;20112;-92
2022/12/11 08:53:18;;;;;;;26.45;14.52;;;230.60;1868.80;;;;;;5035121;28;20032;-92
2022/12/11 08:55:43;;;;;;;24.90;17.63;;;230.70;2252.80;;;;;;5034573;28;20462;-92
2022/12/11 08:58:09;;;;;;;27.33;16.77;;;230.70;2252.80;;;;;;5034384;28;20054;-92
2022/12/11 09:00:35;;;;;;;20.77;14.05;;;230.70;2252.80;;;;;;5034444;28;20386;-92
2022/12/11 09:03:01;;;;;;;29.30;16.48;;;230.70;2252.80;;;;;;5034454;28;20175;-94
2022/12/11 09:05:27;;;;;;;20.92;12.15;;;230.60;2252.80;;;;;;5033465;28;20032;-92
2022/12/11 09:07:53;;;;;;;21.85;14.65;;;230.50;2252.80;;;;;;5034375;28;20032;-92
2022/12/11 09:10:22;;;;;;;37.15;24.02;;;230.60;2252.80;;;;;;5034397;28;20425;-93
2022/12/11 09:12:47;;;;;;;21.63;11.82;;;230.70;2252.80;;;;;;5044897;28;20041;-93
2022/12/11 09:15:13;;;;;;;18.23;12.00;;;230.60;2252.80;;;;;;5017885;28;20033;-90
2022/12/11 09:17:39;;;;;;;17.15;11.05;;;230.70;2252.80;;;;;;5017834;28;20030;-92
2022/12/11 09:20:05;;;;;;;19.63;11.25;;;230.70;2252.80;;;;;;5017613;28;20049;-92
2022/12/11 09:22:32;;;;;;;42.08;22.50;;;230.70;2252.80;;;;;;5017771;28;20067;-92
2022/12/11 09:24:58;;;;;;;34.17;17.15;;;230.60;2252.80;;;;;;5017439;28;20380;-92
2022/12/11 09:27:24;;;;;;;48.28;28.98;;;230.60;2252.80;;;;;;5017893;28;20025;-91
2022/12/11 09:29:50;;;;;;;20.42;12.02;;;230.60;2252.80;;;;;;5017884;28;20500;-91
2022/12/11 09:32:16;;;;;;;59.05;27.92;;;230.70;2252.80;;;;;;5050769;28;20038;-93
2022/12/11 09:34:42;;;;;;;45.13;29.33;;;230.60;2252.80;;;;;;5017414;28;20025;-92
2022/12/11 09:37:08;;;;;;;25.98;16.65;;;230.50;2252.80;;;;;;5017473;28;20032;-93
2022/12/11 09:39:34;;;;;;;19.08;11.90;;;230.60;2252.80;;;;;;5017490;28;20036;-92
2022/12/11 09:42:18;;;;;;;19.40;11.43;;;230.60;2252.80;;;;;;5017348;28;20029;-93
2022/12/11 09:44:52;;;;;;;15.07;10.30;;;230.60;2252.80;;;;;;5017479;28;20030;-92
2022/12/11 09:47:39;;;;;;;16.52;11.63;;;230.60;2252.80;;;;;;5018332;28;20025;-93
2022/12/11 09:50:08;;;;;;;22.27;14.60;;;230.50;2252.80;;;;;;5018748;28;20457;-93
2022/12/11 09:53:03;;;;;;;13.82;9.93;;;230.40;2252.80;;;;;;5017620;28;20034;-93
2022/12/11 09:55:38;;;;;;;18.98;12.48;;;230.50;2252.80;;;;;;4994735;28;20035;-92
2022/12/11 09:58:07;;;;;;;25.52;18.23;;;230.70;2252.80;;;;;;5017611;28;20536;-93
2022/12/11 10:00:40;;;;;;;24.30;18.10;;;230.50;2252.80;;;;;;5029877;28;20473;-91
2022/12/11 10:03:17;;;;;;;38.58;24.38;;;230.60;2252.80;;;;;;5037285;28;20029;-93
2022/12/11 10:06:00;;;;;;;32.45;21.75;;;230.50;2252.80;;;;;;5070682;28;20080;-90
2022/12/11 10:08:46;;;;;;;28.08;19.38;;;230.50;2252.80;;;;;;5070211;28;20052;-90
2022/12/11 10:11:39;;;;;;;21.80;15.00;;;230.60;2252.80;;;;;;5070239;28;20025;-93
2022/12/11 10:14:36;;;;;;;26.42;19.42;;;230.50;2252.80;;;;;;5069614;28;20029;-90
2022/12/11 10:17:25;;;;;;;42.22;25.88;;;230.40;2252.80;;;;;;5039835;28;20029;-91
2022/12/11 10:19:52;;;;;;;36.28;23.85;;;230.60;2252.80;;;;;;5023285;28;20044;-93
2022/12/11 10:22:28;;;;;;;40.35;27.15;;;230.50;2252.80;;;;;;5040717;28;20033;-92
2022/12/11 10:24:58;;;;;;;24.13;17.20;;;230.50;2252.80;;;;;;5040325;28;20606;-89
2022/12/11 10:27:34;;;;;;;30.52;18.70;;;230.40;2252.80;;;;;;5040402;28;20037;-89
2022/12/11 10:30:15;;;;;;;38.47;25.02;;;205.70;2252.80;;;;;;5040504;28;20036;-89
2022/12/11 10:33:05;;;;;;;38.78;26.23;;;205.60;2252.80;;;;;;5040417;28;20025;-90
2022/12/11 10:35:48;;;;;;;26.95;16.63;;;205.50;2252.80;;;;;;5040040;28;20055;-91
2022/12/11 10:38:23;;;;;;;37.13;27.05;;;205.40;2252.80;;;;;;5040386;28;20166;-88
2022/12/11 10:41:01;;;;;;;34.33;24.25;;;205.40;2252.80;;;;;;5040166;28;20123;-91
2022/12/11 10:43:42;;;;;;;30.52;21.35;;;205.40;2252.80;;;;;;5039873;28;20036;-92
2022/12/11 10:46:28;;;;;;;61.90;37.15;;;205.40;2252.80;;;;;;5040576;28;20492;-90
2022/12/11 10:48:57;;;;;;;31.38;20.77;;;205.40;2252.80;;;;;;5039845;28;20469;-90
2022/12/11 10:51:30;;;;;;;41.90;29.35;;;205.30;2252.80;;;;;;5039968;28;20407;-89
2022/12/11 10:54:21;;;;;;;28.52;18.73;;;205.40;2252.80;;;;;;5039809;28;20121;-91
2022/12/11 10:56:48;;;;;;;18.88;12.48;;;205.30;2252.80;;;;;;5025953;28;20029;-89
2022/12/11 10:59:52;;;;;;;47.10;25.40;;;205.20;2252.80;;;;;;5039526;28;20041;-90
2022/12/11 11:02:36;;;;;;;23.13;13.43;;;205.20;2252.80;;;;;;5008800;28;20465;-89
2022/12/11 11:05:26;;;;;;;44.88;23.85;;;205.10;2252.80;;;;;;5039739;28;20032;-90
2022/12/11 11:08:03;;;;;;;20.92;12.88;;;205.20;2252.80;;;;;;5039009;28;20091;-92
2022/12/11 11:10:29;;;;;;;14.55;9.98;;;205.10;2252.80;;;;;;5039850;28;20032;-90
2022/12/11 11:13:01;;;;;;;21.67;13.50;;;205.20;2252.80;;;;;;5039371;28;20029;-90
2022/12/11 11:15:29;;;;;;;24.60;16.88;;;205.00;2252.80;;;;;;5063273;28;20009;-89
2022/12/11 11:18:03;;;;;;;24.63;17.60;;;205.20;2252.80;;;;;;5057116;28;20017;-89
2022/12/11 11:20:32;;;;;;;20.70;12.50;;;205.10;2252.80;;;;;;5040815;28;20483;-89
2022/12/11 11:23:10;;;;;;;24.98;15.70;;;205.10;2252.80;;;;;;5039806;28;20045;-90
2022/12/11 11:25:36;;;;;;;26.67;18.95;;;205.10;2252.80;;;;;;5039514;28;20041;-89
2022/12/11 11:28:05;;;;;;;28.63;19.75;;;205.10;2252.80;;;;;;5039408;28;20021;-92
2022/12/11 11:30:39;;;;;;;25.10;16.98;;;205.00;2252.80;;;;;;5039147;28;20021;-89
2022/12/11 11:33:13;;;;;;;31.38;21.50;;;180.10;2252.80;;;;;;5037475;28;20021;-89
2022/12/11 11:35:39;;;;;;;26.55;17.23;;;;;;;;;;5027761;28;20028;-91
2022/12/11 11:38:14;;;;;;;23.63;17.48;;;;;;;;;;5036771;28;20438;-90
2022/12/11 11:41:19;;;;;;;26.25;18.83;;;;;;;;;;5035782;28;20049;-92
2022/12/11 11:43:48;;;;;;;15.70;10.52;;;;;;;;;;4925775;29;20038;-88
2022/12/11 11:46:17;;;;;;;10.40;6.78;;;;;;;;;;4925754;29;20051;-89
2022/12/11 11:48:46;;;;;;;19.98;14.27;;;;;;;;;;4996335;28;20033;-91
2022/12/11 11:51:33;;;;;;;30.48;20.80;;;;;;;;;;5038102;28;20049;-88
2022/12/11 11:54:03;;;;;;;21.90;16.08;;;180.00;2252.80;;;;;;5029610;28;20026;-89
2022/12/11 11:56:36;;;;;;;28.88;20.23;;;179.90;2252.80;;;;;;5032478;28;20488;-88
2022/12/11 11:59:05;;;;;;;23.17;16.02;;;;;;;;;;5036622;28;20428;-88
2022/12/11 12:01:32;;;;;;;21.77;16.38;;;;;;;;;;5025779;28;20037;-89
2022/12/11 12:03:58;;;;;;;14.90;10.98;;;204.80;2252.80;;;;;;5019464;28;20044;-89
2022/12/11 12:06:40;;;;;;;38.35;26.20;;;180.00;2252.80;;;;;;5027715;28;20460;-90
2022/12/11 12:09:19;;;;;;;23.30;16.23;;;179.90;2252.80;;;;;;5038388;28;20031;-89
2022/12/11 12:12:17;;;;;;;12.07;9.25;;;179.80;2252.80;;;;;;5038031;28;20032;-88
2022/12/11 12:15:11;;;;;;;22.33;16.88;;;179.60;2252.80;;;;;;5014697;28;20507;-90
2022/12/11 12:17:55;;;;;;;64.82;40.97;;;179.60;2252.80;;;;;;5036067;28;20029;-90
2022/12/11 12:20:36;;;;;;;24.15;18.40;;;179.60;2252.80;;;;;;5018009;28;20511;-90
2022/12/11 12:23:41;;;;;;;19.45;15.85;;;179.60;2252.80;;;;;;5031163;28;20032;-89
2022/12/11 12:26:16;;;;;;;15.32;11.70;;;179.40;2252.80;;;;;;5038311;28;20445;-90
2022/12/11 12:28:44;;;;;;;21.88;17.02;;;179.40;2252.80;;;;;;5038034;28;20021;-91
2022/12/11 12:31:23;;;;;;;22.10;14.63;;;179.50;2252.80;;;;;;5038386;28;20033;-90
2022/12/11 12:34:09;;;;;;;19.45;15.82;;;179.50;2252.80;;;;;;5038262;28;20099;-91
2022/12/11 12:36:54;;;;;;;28.38;21.85;;;;;;;;;;5038432;28;20411;-89
2022/12/11 12:39:52;;;;;;;23.38;16.33;;;179.20;2252.80;;;;;;5037444;28;20079;-89
2022/12/11 12:42:42;;;;;;;33.97;22.60;;;154.40;2252.80;;;;;;5037200;28;20025;-89
2022/12/11 12:45:41;;;;;;;28.20;18.77;;;154.50;2252.80;;;;;;5009824;28;20057;-90
2022/12/11 12:48:08;;;;;;;19.08;14.18;;;154.10;2252.80;;;;;;5013447;28;20027;-86
2022/12/11 12:50:42;;;;;;;19.98;14.60;;;153.90;2252.80;;;;;;5017409;28;20053;-90
2022/12/11 12:53:23;;;;;;;27.30;15.98;;;153.80;2252.80;;;;;;5018475;28;20029;-91
2022/12/11 12:55:50;;;;;;;24.92;18.52;;;153.60;2252.80;;;;;;5015461;28;20037;-90
2022/12/11 12:58:43;;;;;;;16.40;11.98;;;153.60;2252.80;;;;;;5015118;28;20137;-90
2022/12/11 13:01:24;;;;;;;13.48;8.27;;;153.60;2252.80;;;;;;5020527;28;20122;-90
2022/12/11 13:04:05;;;;;;;26.00;16.48;;;128.80;2252.80;;;;;;5035939;28;20021;-88
2022/12/11 13:07:00;;;;;;;22.02;13.90;;;128.80;2252.80;;;;;;5036037;28;20098;-88
2022/12/11 13:09:43;;;;;;;20.63;13.18;;;128.70;2252.80;;;;;;5027892;28;20036;-90
2022/12/11 13:19:32;;;;;;;28.40;21.30;;;128.50;2252.80;;;;;;5055204;28;20059;-88
2022/12/11 13:22:09;;;;;;;34.28;21.40;;;128.40;2252.80;;;;;;5054895;28;20033;-89
2022/12/11 13:24:45;;;;;;;31.83;21.42;;;128.50;2252.80;;;;;;5036542;28;20032;-89
2022/12/11 13:27:28;;;;;;;53.90;32.95;;;128.50;2252.80;;;;;;5036013;28;20021;-88
2022/12/11 13:30:25;;;;;;;113.72;67.38;;;128.40;2252.80;;;;;;5036638;28;20595;-89
2022/12/11 13:32:56;;;;;;;110.80;69.80;;;128.70;2252.80;;;;;;5016482;28;20056;-88
2022/12/11 13:35:23;;;;;;;119.90;73.97;;;128.80;2252.80;;;;;;5036839;28;20017;-89
2022/12/11 13:37:50;;;;;;;146.57;87.22;;;128.70;2252.80;;;;;;5036381;28;20254;-88
2022/12/11 13:40:24;;;;;;;139.23;86.43;;;128.90;2252.80;;;;;;5036574;28;20102;-89
2022/12/11 13:43:00;;;;;;;129.30;78.38;;;128.90;2252.80;;;;;;5036442;28;20076;-90
2022/12/11 13:45:31;;;;;;;107.15;62.38;;;128.90;2252.80;;;;;;5036709;28;20036;-88
2022/12/11 13:47:58;;;;;;;64.75;43.55;;;153.70;2252.80;;;;;;5036862;28;20025;-90
2022/12/11 13:50:29;;;;;;;69.45;48.72;;;153.70;2252.80;;;;;;5035591;28;20025;-89
2022/12/11 13:52:57;;;;;;;92.90;58.67;;;153.60;2252.80;;;;;;5036864;28;20028;-90
2022/12/11 13:55:29;;;;;;;112.97;67.88;;;153.80;2252.80;;;;;;5036874;28;20060;-91
2022/12/11 13:57:56;;;;;;;100.83;64.63;;;153.70;2252.80;;;;;;5036299;28;20100;-89
2022/12/11 14:00:31;;;;;;;112.25;73.32;;;128.90;2252.80;;;;;;5036403;28;20029;-90
2022/12/11 14:03:01;;;;;;;112.63;76.47;;;128.60;2252.80;;;;;;5035772;28;20040;-89
2022/12/11 14:05:28;;;;;;;109.25;81.60;;;128.50;2252.80;;;;;;5035704;28;20025;-90
2022/12/11 14:07:58;;;;;;;77.80;55.47;;;128.20;2252.80;;;;;;5036050;28;20017;-89
2022/12/11 14:10:26;;;;;;;64.82;47.00;;;103.30;2227.20;;;;;;5035726;28;20380;-89
2022/12/11 14:16:20;;;;;;;113.82;78.72;;;;;;;;;;5051343;28;20040;-89
2022/12/11 14:18:48;;;;;;;90.13;62.92;;;;;;;;;;5052505;28;20033;-91
2022/12/11 14:21:45;;;;;;;69.07;48.50;;;;;;;;;;5035680;28;20124;-91
2022/12/11 14:24:32;;;;;;;65.88;46.53;;;;;;;;;;5050706;28;20055;-89
2022/12/11 14:27:00;;;;;;;76.82;55.53;;;;;;;;;;5053872;28;20111;-91
2022/12/11 14:29:31;;;;;;;109.30;70.07;;;128.50;2252.80;;;;;;5036223;28;20021;-91
2022/12/11 14:32:06;;;;;;;92.43;61.10;;;128.30;2252.80;;;;;;5034449;28;20457;-89
2022/12/11 14:34:43;;;;;;;68.18;50.10;;;128.30;2252.80;;;;;;5036696;28;20025;-89
2022/12/11 14:37:12;;;;;;;91.85;64.53;;;128.20;2252.80;;;;;;5037125;28;20037;-90
2022/12/11 14:39:54;;;;;;;58.13;40.83;;;128.50;2252.80;;;;;;5028628;28;20116;-89
2022/12/11 14:42:24;;;;;;;50.78;34.38;;;128.20;2252.80;;;;;;5038083;28;20508;-89
2022/12/11 14:44:50;;;;;;;47.80;31.52;;;;;;;;;;5037670;28;20116;-89
2022/12/11 14:47:37;;;;;;;51.00;36.97;;;;;;;;;;5053345;28;20029;-90
2022/12/11 14:50:32;;;;;;;43.83;29.73;;;;;;;;;;5047220;28;20048;-88
2022/12/11 14:53:10;;;;;;;37.22;25.55;;;;;;;;;;5049879;28;20112;-90
2022/12/11 14:55:37;;;;;;;63.15;41.90;;;;;;;;;;5038052;28;20037;-90
2022/12/11 14:58:06;;;;;;;50.15;34.47;;;;;;;;;;5038466;28;20047;-91
2022/12/11 15:00:36;;;;;;;37.45;26.20;;;;;;;;;;5039140;28;20491;-90
2022/12/11 15:03:19;;;;;;;46.50;31.92;;;;;;;;;;5040258;28;20029;-91
2022/12/11 15:06:08;;;;;;;56.08;39.63;;;;;;;;;;5040350;28;20086;-90
2022/12/11 15:08:35;;;;;;;63.53;42.67;;;;;;;;;;5038323;28;20052;-90
2022/12/11 15:11:42;;;;;;;56.75;40.95;;;;;;;;;;5040563;28;20036;-90
2022/12/11 15:14:11;;;;;;;63.72;42.58;;;128.80;2252.80;;;;;;5072708;28;20034;-88